createdAt,value
2023-02-13T00:00:20.736Z,11.75
2023-02-13T00:04:33.307Z,11.25
2023-02-13T00:08:45.657Z,12.05
2023-02-13T00:12:58.440Z,12.77
2023-02-13T00:17:10.869Z,12.52
2023-02-13T00:21:23.460Z,5.32
2023-02-13T00:25:37.475Z,5.05
2023-02-13T00:29:50.096Z,12.95
2023-02-13T00:34:03.926Z,13.32
2023-02-13T00:38:16.198Z,12.88
2023-02-13T00:42:28.639Z,13.68
2023-02-13T00:46:41.030Z,13.38
2023-02-13T00:50:53.596Z,10.65
2023-02-13T00:55:06.459Z,11.50
2023-02-13T00:59:21.304Z,10.48
2023-02-13T01:03:36.082Z,11.73
2023-02-13T01:07:48.618Z,12.75
2023-02-13T01:12:02.541Z,15.05
2023-02-13T01:16:18.581Z,11.90
2023-02-13T01:20:34.354Z,11.35
2023-02-13T01:24:46.857Z,12.50
2023-02-13T01:29:02.284Z,13.35
2023-02-13T01:33:16.053Z,13.30
2023-02-13T01:37:29.383Z,13.40
2023-02-13T01:41:42.314Z,14.75
2023-02-13T01:46:01.765Z,13.50
2023-02-13T01:50:26.330Z,14.60
2023-02-13T01:54:39.722Z,13.30
2023-02-13T01:58:58.092Z,14.10
2023-02-13T02:03:17.066Z,5.68
2023-02-13T02:07:31.338Z,14.60
2023-02-13T02:12:00.668Z,14.15
2023-02-13T02:16:13.283Z,13.40
2023-02-13T02:20:38.185Z,13.63
2023-02-13T02:25:34.435Z,14.15
2023-02-13T02:30:12.033Z,13.25
2023-02-13T02:34:43.056Z,14.23
2023-02-13T02:39:18.208Z,14.70
2023-02-13T02:43:52.906Z,15.25
2023-02-13T02:48:38.876Z,15.50
2023-02-13T02:53:38.627Z,15.40
2023-02-13T02:58:29.448Z,15.90
2023-02-13T03:03:03.157Z,15.02
2023-02-13T03:07:18.834Z,5.65
2023-02-13T03:11:49.890Z,6.07
2023-02-13T03:16:21.188Z,13.73
2023-02-13T03:21:24.069Z,15.52
2023-02-13T03:25:59.719Z,15.38
2023-02-13T03:30:28.055Z,15.65
2023-02-13T03:35:07.332Z,16.25
2023-02-13T03:39:44.347Z,16.50
2023-02-13T03:44:17.219Z,15.38
2023-02-13T03:48:53.136Z,15.15
2023-02-13T03:53:12.824Z,6.90
2023-02-13T03:57:46.699Z,16.92
2023-02-13T04:02:29.462Z,16.63
2023-02-13T04:06:57.551Z,18.27
2023-02-13T04:11:26.799Z,5.93
2023-02-13T04:16:10.925Z,6.15
2023-02-13T04:20:28.704Z,5.03
2023-02-13T04:24:41.250Z,16.27
2023-02-13T04:28:53.605Z,5.50
2023-02-13T04:33:06.954Z,16.55
2023-02-13T04:37:20.955Z,13.82
2023-02-13T04:41:35.693Z,14.68
2023-02-13T04:45:52.372Z,14.60
2023-02-13T04:50:06.517Z,15.73
2023-02-13T04:54:19.973Z,5.93
2023-02-13T04:58:32.496Z,6.80
2023-02-13T05:02:46.156Z,5.20
2023-02-13T05:07:00.707Z,14.68
2023-02-13T05:11:14.193Z,6.35
2023-02-13T05:15:26.708Z,15.45
2023-02-13T05:19:40.210Z,5.60
2023-02-13T05:23:53.815Z,14.77
2023-02-13T05:28:29.006Z,15.10
2023-02-13T05:32:43.615Z,5.45
2023-02-13T05:36:56.069Z,3.72
2023-02-13T05:41:09.858Z,5.88
2023-02-13T05:45:22.430Z,7.07
2023-02-13T05:49:34.802Z,6.45
2023-02-13T05:53:48.551Z,19.70
2023-02-13T05:58:02.250Z,22.17
2023-02-13T06:02:14.604Z,23.13
2023-02-13T06:06:27.553Z,6.97
2023-02-13T06:10:40.875Z,7.00
2023-02-13T06:14:54.790Z,23.05
2023-02-13T06:19:11.269Z,7.68
2023-02-13T06:23:23.601Z,8.88
2023-02-13T06:27:39.490Z,23.13
2023-02-13T06:31:53.872Z,20.58
2023-02-13T06:36:09.070Z,8.90
2023-02-13T06:40:24.347Z,22.83
2023-02-13T06:44:36.664Z,21.95
2023-02-13T06:48:49.021Z,8.70
2023-02-13T06:53:02.839Z,31.90
2023-02-13T06:57:16.097Z,12.40
2023-02-13T07:01:29.251Z,11.63
2023-02-13T07:05:56.311Z,11.45
2023-02-13T07:10:13.261Z,14.63
2023-02-13T07:14:25.982Z,11.43
2023-02-13T07:18:42.139Z,11.60
2023-02-13T07:22:57.793Z,14.80
2023-02-13T07:27:10.206Z,38.17
2023-02-13T07:31:22.779Z,35.20
2023-02-13T07:35:36.425Z,31.27
2023-02-13T07:39:48.971Z,30.67
2023-02-13T07:44:01.368Z,28.98
2023-02-13T07:48:13.751Z,32.60
2023-02-13T07:52:26.098Z,38.03
2023-02-13T07:56:38.648Z,32.58
2023-02-13T08:00:52.002Z,34.53
2023-02-13T08:05:04.660Z,30.35
2023-02-13T08:09:40.990Z,30.58
2023-02-13T08:13:53.585Z,32.95
2023-02-13T08:18:06.170Z,30.38
2023-02-13T08:22:18.698Z,29.08
2023-02-13T08:26:34.766Z,26.38
2023-02-13T08:30:47.204Z,27.80
2023-02-13T08:34:59.632Z,33.63
2023-02-13T08:39:12.178Z,24.73
2023-02-13T08:43:24.677Z,21.77
2023-02-13T08:47:37.057Z,21.48
2023-02-13T08:51:50.216Z,23.40
2023-02-13T08:56:02.579Z,21.80
2023-02-13T09:00:15.488Z,21.17
2023-02-13T09:04:28.424Z,18.13
2023-02-13T09:08:43.612Z,17.73
2023-02-13T09:12:56.006Z,17.73
2023-02-13T09:17:08.716Z,16.50
2023-02-13T09:21:25.755Z,16.15
2023-02-13T09:25:38.096Z,14.77
2023-02-13T09:29:50.361Z,13.38
2023-02-13T09:34:02.689Z,14.88
2023-02-13T09:38:15.035Z,13.27
2023-02-13T09:42:31.864Z,13.65
2023-02-13T09:46:44.764Z,13.18
2023-02-13T09:50:59.064Z,12.05
2023-02-13T09:55:20.120Z,12.88
2023-02-13T10:00:17.781Z,10.98
2023-02-13T10:04:53.029Z,11.57
2023-02-13T10:09:17.219Z,11.07
2023-02-13T10:14:00.479Z,10.07
2023-02-13T10:18:19.915Z,10.98
2023-02-13T10:22:47.382Z,12.00
2023-02-13T10:27:05.408Z,10.85
2023-02-13T10:31:23.184Z,12.25
2023-02-13T10:35:35.680Z,12.00
2023-02-13T10:39:54.351Z,9.93
2023-02-13T10:44:36.925Z,10.60
2023-02-13T10:49:05.382Z,9.57
2023-02-13T10:53:32.589Z,9.63
2023-02-13T10:57:58.098Z,10.13
2023-02-13T11:02:26.768Z,9.90
2023-02-13T11:06:48.749Z,10.93
2023-02-13T11:11:02.184Z,9.40
2023-02-13T11:15:40.898Z,9.50
2023-02-13T11:20:00.114Z,8.82
2023-02-13T11:24:24.849Z,9.63
2023-02-13T11:28:45.776Z,9.30
2023-02-13T11:33:05.457Z,8.45
2023-02-13T11:37:27.784Z,9.15
2023-02-13T11:41:44.284Z,8.60
2023-02-13T11:46:05.910Z,8.75
2023-02-13T11:50:38.045Z,8.45
2023-02-13T11:54:57.555Z,8.20
2023-02-13T11:59:14.571Z,8.00
2023-02-13T12:03:32.619Z,8.50
2023-02-13T12:07:46.471Z,8.05
2023-02-13T12:12:05.376Z,7.10
2023-02-13T12:21:01.781Z,6.85
2023-02-13T12:25:49.056Z,5.60
2023-02-13T12:30:16.576Z,6.25
2023-02-13T12:34:53.729Z,5.80
2023-02-13T12:39:35.372Z,6.30
2023-02-13T12:44:14.791Z,6.35
2023-02-13T12:48:36.749Z,8.15
2023-02-13T12:53:27.500Z,6.88
2023-02-13T13:01:55.458Z,6.18
2023-02-13T13:06:31.145Z,5.70
2023-02-13T13:11:07.192Z,6.68
2023-02-13T13:15:43.935Z,5.55
2023-02-13T13:20:15.376Z,7.00
2023-02-13T13:24:46.406Z,6.30
2023-02-13T13:29:01.910Z,7.00
2023-02-13T13:33:22.672Z,5.95
2023-02-13T13:38:02.836Z,5.90
2023-02-13T13:42:39.688Z,6.35
2023-02-13T13:47:11.965Z,6.13
2023-02-13T13:51:24.967Z,6.38
2023-02-13T13:56:18.577Z,6.70
2023-02-13T14:00:34.372Z,7.35
2023-02-13T14:05:08.289Z,7.70
2023-02-13T14:09:28.656Z,7.32
2023-02-13T14:17:56.830Z,7.78
2023-02-13T14:22:32.955Z,6.95
2023-02-13T14:27:04.796Z,7.25
2023-02-13T14:31:24.429Z,7.55
2023-02-13T14:35:39.028Z,6.53
2023-02-13T14:40:20.911Z,6.70
2023-02-13T14:44:33.840Z,6.90
2023-02-13T14:48:53.604Z,6.45
2023-02-13T14:53:17.986Z,5.88
2023-02-13T14:57:38.413Z,6.88
2023-02-13T15:01:58.126Z,6.53
2023-02-13T15:06:26.148Z,7.78
2023-02-13T15:10:50.740Z,7.80
2023-02-13T15:15:22.990Z,7.13
2023-02-13T15:19:44.166Z,8.65
2023-02-13T15:23:58.170Z,8.73
2023-02-13T15:28:24.928Z,8.00
2023-02-13T15:32:39.893Z,8.05
2023-02-13T15:36:52.879Z,8.65
2023-02-13T15:41:30.566Z,8.48
2023-02-13T15:45:44.372Z,9.20
2023-02-13T15:49:57.395Z,9.07
2023-02-13T15:54:24.876Z,9.35
2023-02-13T15:58:37.559Z,8.90
2023-02-13T16:02:51.681Z,8.32
2023-02-13T16:07:04.187Z,8.70
2023-02-13T16:11:25.476Z,9.57
2023-02-13T16:15:38.205Z,9.70
2023-02-13T16:20:02.759Z,11.68
2023-02-13T16:24:17.190Z,14.52
2023-02-13T16:28:32.980Z,16.15
2023-02-13T16:32:46.621Z,16.63
2023-02-13T16:37:00.105Z,15.20
2023-02-13T16:41:18.330Z,13.05
2023-02-13T16:45:30.654Z,11.95
2023-02-13T16:49:55.427Z,13.88
2023-02-13T16:54:46.003Z,16.60
2023-02-13T16:59:36.399Z,21.67
2023-02-13T17:03:50.125Z,20.33
2023-02-13T17:08:02.692Z,22.70
2023-02-13T17:12:19.443Z,24.98
2023-02-13T17:16:31.885Z,25.60
2023-02-13T17:20:45.710Z,23.63
2023-02-13T17:24:58.901Z,24.67
2023-02-13T17:29:11.397Z,29.10
2023-02-13T17:33:30.248Z,31.70
2023-02-13T17:37:44.204Z,27.48
2023-02-13T17:41:56.593Z,25.85
2023-02-13T17:46:09.111Z,24.65
2023-02-13T17:50:22.122Z,22.95
2023-02-13T17:54:35.645Z,17.38
2023-02-13T17:58:48.222Z,19.42
2023-02-13T18:03:02.032Z,20.95
2023-02-13T18:07:18.138Z,14.80
2023-02-13T18:11:30.761Z,20.63
2023-02-13T18:15:45.370Z,20.17
2023-02-13T18:19:58.324Z,22.05
2023-02-13T18:24:10.848Z,25.10
2023-02-13T18:28:24.672Z,23.08
2023-02-13T18:32:37.007Z,20.05
2023-02-13T18:36:50.141Z,21.55
2023-02-13T18:41:04.606Z,22.98
2023-02-13T18:45:17.027Z,21.98
2023-02-13T18:49:29.425Z,25.08
2023-02-13T18:53:42.857Z,25.70
2023-02-13T18:57:56.625Z,26.10
2023-02-13T19:02:10.629Z,26.65
2023-02-13T19:06:25.727Z,21.95
2023-02-13T19:10:38.215Z,23.55
2023-02-13T19:14:50.546Z,23.40
2023-02-13T19:19:06.380Z,20.70
2023-02-13T19:23:18.818Z,21.67
2023-02-13T19:27:31.234Z,21.38
2023-02-13T19:31:45.846Z,20.15
2023-02-13T19:36:12.274Z,20.40
2023-02-13T19:40:26.921Z,20.20
2023-02-13T19:44:39.345Z,21.48
2023-02-13T19:48:52.150Z,19.73
2023-02-13T19:53:06.120Z,19.77
2023-02-13T19:57:18.630Z,18.58
2023-02-13T20:01:31.738Z,20.88
2023-02-13T20:05:44.186Z,18.55
2023-02-13T20:09:56.603Z,18.17
2023-02-13T20:14:23.793Z,18.38
2023-02-13T20:18:38.106Z,19.42
2023-02-13T20:22:50.448Z,17.70
2023-02-13T20:27:02.880Z,18.92
2023-02-13T20:31:17.889Z,17.33
2023-02-13T20:35:30.300Z,16.55
2023-02-13T20:39:44.940Z,18.13
2023-02-13T20:44:06.066Z,17.02
2023-02-13T20:48:18.667Z,17.50
2023-02-13T20:52:31.114Z,18.35
2023-02-13T20:56:45.484Z,18.20
2023-02-13T21:00:58.229Z,18.15
2023-02-13T21:05:11.075Z,18.25
2023-02-13T21:09:23.636Z,17.15
2023-02-13T21:13:39.209Z,17.48
2023-02-13T21:17:51.714Z,16.05
2023-02-13T21:22:13.063Z,7.13
2023-02-13T21:26:28.778Z,17.45
2023-02-13T21:30:41.372Z,6.45
2023-02-13T21:34:56.035Z,15.23
2023-02-13T21:39:09.848Z,16.45
2023-02-13T21:43:23.517Z,15.63
2023-02-13T21:47:35.865Z,15.95
2023-02-13T21:51:49.874Z,15.00
2023-02-13T21:56:04.158Z,15.85
2023-02-13T22:00:16.989Z,16.08
2023-02-13T22:04:30.122Z,16.40
2023-02-13T22:08:44.182Z,16.15
2023-02-13T22:12:56.447Z,6.47
2023-02-13T22:17:09.110Z,16.20
2023-02-13T22:21:24.195Z,16.13
2023-02-13T22:25:36.626Z,15.77
2023-02-13T22:29:51.358Z,14.80
2023-02-13T22:34:06.359Z,14.85
2023-02-13T22:38:18.828Z,15.73
2023-02-13T22:42:31.989Z,15.32
2023-02-13T22:46:46.434Z,14.15
2023-02-13T22:51:05.385Z,14.27
2023-02-13T22:55:17.815Z,14.57
2023-02-13T22:59:40.245Z,6.40
2023-02-13T23:03:52.979Z,5.93
2023-02-13T23:08:05.512Z,5.15
2023-02-13T23:12:36.573Z,6.35
2023-02-13T23:17:11.195Z,14.75
2023-02-13T23:21:26.165Z,15.38
2023-02-13T23:25:40.347Z,14.65
2023-02-13T23:29:54.074Z,14.02
2023-02-13T23:34:06.465Z,14.65
2023-02-13T23:38:19.993Z,13.77
2023-02-13T23:42:32.400Z,13.00
2023-02-13T23:46:45.044Z,13.05
2023-02-13T23:50:57.738Z,12.45
2023-02-13T23:55:10.155Z,5.63
2023-02-13T23:59:24.187Z,11.98
